Airfield :
LOGIN :

Register | Disclaimer

   EN    FR    IT 

 










Legend :    VFR   Marginal VFR   IFR   Intensive IFR   Very Intensive IFR
Visi :
Ceiling :
>= 8 km
>= 3000ft
5 to 8 km
1000 to 3000 ft
1500m to 5 km
500 to 1000 ft
800 to 1500m
200 to 500 ft
< 800m
< 200 ft
Symbols :   Thunderstorms  Fog  Heavy snow  Heavy precipitations  Wind > 20 kt
SIGMETs :     Misc.  Thunderstorms  Icing  Turbulence  Mountain Waves  Volcanic Ashes






- Airport Elevation : 26 ft
- IATA code : GLA


EGPF - Glasgow

CURRENT METAR :
  • 230220Z AUTO 07009KT 9999 -RA BKN045/// //////TCU 07/05 Q1000

EXPIRED METARs :
  • 230150Z AUTO 06010KT 9999 -RA BKN046 07/05 Q1000
  • 230120Z AUTO 07011KT 9999 -RA OVC045 06/05 Q0999
  • 230050Z AUTO 06011KT 9999 -RA BKN048/// //////TCU 07/05 Q0999
  • 230020Z AUTO 06012KT 9999 -RA NCD 07/05 Q0999
  • 222350Z AUTO 06013KT 9999 NCD 07/05 Q0999
  • 222320Z AUTO 06010KT 9999 -RA NCD 07/05 Q0999

TAF TAF EGPF
Valid from the 23 at 00:00 until the 24 at 00:00 UTC


222259Z 2300/2324 08009KT 9999 SCT040
TEMPO 2300/2305 8000 -RA BKN014
PROB30
TEMPO 2300/2303 RA
TEMPO 2309/2324 6000 RA BKN012
PROB30
TEMPO 2309/2318 09015G25KT 4000 RADZ BKN008
ATIS : +44 141 887 7449



MET'MAP, your aeronautical weather chart ! - Copyright ORBIFLY December 2007 - Disclaimer

ORBIFLY MET'MAP TEAM :

Programming & Development : Alexandra Zaïnal
Concept & Development : Baudouin d'Aumeries
Co-Development & Prog : Marc-Olivier Méhu
Technical & hardware support : Manuel Goepfert

Contact : metmap@orbifly.com




SOURCES & CREDITS :

   NOAA